Time;durP1;ratioP1;P1;durP2;ratioP2;P2;SDS_P1;SDS_P2;PMS_P1;PMS_P2;Temp;Humidity;BMP_temperature;BMP_pressure;BME280_temperature;BME280_humidity;BME280_pressure;Samples;Min_cycle;Max_cycle;Signal;HPM_P1;HPM_P2
2021/11/15 00:01:36;;;;;;;50.47;21.77;;;;;;;7.15;100.00;98727.88;4526277;31;20138;-84
2021/11/15 00:04:03;;;;;;;55.67;22.15;;;;;;;7.03;100.00;98726.50;4517614;31;20282;-83
2021/11/15 00:06:45;;;;;;;48.30;20.83;;;;;;;7.07;100.00;98723.00;4523512;31;20115;-83
2021/11/15 00:09:13;;;;;;;45.67;20.85;;;;;;;6.97;100.00;98712.22;4525979;31;20466;-85
2021/11/15 00:11:40;;;;;;;42.70;19.52;;;;;;;6.90;100.00;98717.06;4513728;31;20066;-84
2021/11/15 00:14:07;;;;;;;42.20;19.35;;;;;;;6.87;100.00;98696.84;4519395;31;20054;-86
2021/11/15 00:16:35;;;;;;;41.60;18.83;;;;;;;7.05;100.00;98724.34;4522392;31;20062;-82
2021/11/15 00:19:02;;;;;;;43.38;18.27;;;;;;;7.08;100.00;98721.94;4514983;31;20479;-85
2021/11/15 00:21:29;;;;;;;41.83;18.48;;;;;;;6.92;100.00;98720.28;4523031;31;20059;-82
2021/11/15 00:23:56;;;;;;;37.15;17.05;;;;;;;6.75;100.00;98727.78;4509376;31;20067;-84
2021/11/15 00:26:25;;;;;;;38.53;17.52;;;;;;;6.67;100.00;98714.81;4502350;31;20532;-84
2021/11/15 00:28:52;;;;;;;41.97;18.38;;;;;;;6.55;100.00;98723.13;4513013;31;20066;-85
2021/11/15 00:31:21;;;;;;;44.10;18.05;;;;;;;6.59;100.00;98721.50;4511062;31;20070;-86
2021/11/15 00:33:48;;;;;;;43.00;17.92;;;;;;;6.60;100.00;98708.88;4514256;31;20063;-85
2021/11/15 00:36:15;;;;;;;40.67;18.42;;;;;;;6.74;100.00;98702.72;4513365;31;20147;-85
2021/11/15 01:09:54;;;;;;;42.03;18.80;;;;;;;6.64;100.00;98726.91;4701164;30;20490;-85
2021/11/15 01:12:21;;;;;;;42.50;19.05;;;;;;;6.67;100.00;98720.19;4700858;30;20057;-85
2021/11/15 01:14:48;;;;;;;38.78;18.42;;;;;;;6.58;100.00;98709.13;4701564;30;20496;-85
2021/11/15 01:17:16;;;;;;;40.95;18.13;;;;;;;6.42;100.00;98693.19;4715050;30;20143;-85
2021/11/15 01:19:42;;;;;;;47.65;19.38;;;;;;;6.42;100.00;98717.41;4727490;30;20563;-85
2021/11/15 01:22:10;;;;;;;43.10;18.23;;;;;;;6.55;100.00;98720.44;4712480;30;20440;-85
2021/11/15 01:24:36;;;;;;;42.30;19.05;;;;;;;6.73;100.00;98727.22;4719346;30;20210;-85
2021/11/15 01:27:05;;;;;;;46.08;18.88;;;;;;;6.68;100.00;98721.81;4731745;30;20471;-84
2021/11/15 01:29:31;;;;;;;43.40;19.15;;;;;;;6.53;100.00;98730.63;4719230;30;20061;-85
2021/11/15 01:32:00;;;;;;;40.08;18.20;;;;;;;6.65;100.00;98719.66;4719151;30;20053;-85
2021/11/15 01:34:29;;;;;;;44.72;19.83;;;;;;;6.59;100.00;98707.25;4725878;30;20476;-85
2021/11/15 01:36:56;;;;;;;39.72;18.63;;;;;;;6.84;100.00;98726.16;4714368;30;20509;-84
2021/11/15 01:39:24;;;;;;;44.17;19.55;;;;;;;6.72;100.00;98720.22;4714498;30;20083;-85
2021/11/15 01:41:53;;;;;;;48.58;20.00;;;;;;;6.76;100.00;98714.03;4729394;30;20151;-84
2021/11/15 01:44:19;;;;;;;45.33;20.23;;;;;;;6.80;100.00;98722.41;4715676;30;20053;-84
2021/11/15 01:46:47;;;;;;;47.15;20.77;;;;;;;6.83;100.00;98709.25;4728818;30;20111;-84
2021/11/15 01:49:14;;;;;;;45.33;20.95;;;;;;;6.86;100.00;98715.97;4715018;30;20064;-84
2021/11/15 01:51:41;;;;;;;47.45;21.42;;;;;;;6.66;100.00;98719.38;4727300;30;20114;-86
2021/11/15 01:54:08;;;;;;;50.47;21.75;;;;;;;6.64;100.00;98708.06;4818410;29;20567;-86
2021/11/15 01:56:35;;;;;;;58.03;24.17;;;;;;;6.52;100.00;98717.44;4859857;29;20058;-85
2021/11/15 01:59:03;;;;;;;55.17;23.83;;;;;;;6.63;100.00;98709.13;4859959;29;20562;-86
2021/11/15 02:01:30;;;;;;;55.85;24.02;;;;;;;6.69;100.00;98707.28;4849142;29;20121;-85
2021/11/15 02:03:58;;;;;;;59.90;24.75;;;;;;;6.48;100.00;98713.66;4852119;29;20057;-85
2021/11/15 02:06:25;;;;;;;63.80;26.85;;;;;;;6.43;100.00;98727.06;4856573;29;20053;-83
2021/11/15 02:08:52;;;;;;;65.38;26.73;;;;;;;6.52;100.00;98707.50;4849590;29;20105;-83
2021/11/15 02:11:21;;;;;;;71.00;28.38;;;;;;;6.46;100.00;98715.78;4860141;29;20494;-83
2021/11/15 02:13:47;;;;;;;66.32;28.05;;;;;;;6.35;100.00;98688.03;4861536;29;20063;-83
2021/11/15 02:16:14;;;;;;;69.65;28.55;;;;;;;6.38;100.00;98711.72;4861756;29;20369;-84
2021/11/15 02:18:42;;;;;;;72.57;28.77;;;;;;;6.31;100.00;98707.66;4860016;29;20109;-84
2021/11/15 02:21:09;;;;;;;75.18;30.10;;;;;;;6.33;100.00;98697.44;4842829;29;20077;-86
2021/11/15 02:23:40;;;;;;;77.95;30.75;;;;;;;6.39;100.00;98709.84;4843036;29;20126;-84
2021/11/15 02:26:09;;;;;;;79.43;30.88;;;;;;;6.42;100.00;98712.84;4843209;29;20054;-86
2021/11/15 02:28:42;;;;;;;80.60;30.73;;;;;;;6.40;100.00;98706.88;4843982;29;20572;-83
2021/11/15 02:31:13;;;;;;;81.40;31.73;;;;;;;6.45;100.00;98698.06;4842373;29;20058;-82
2021/11/15 02:33:45;;;;;;;81.35;32.55;;;;;;;6.46;100.00;98705.03;4843953;29;20156;-83
2021/11/15 02:36:12;;;;;;;80.88;31.77;;;;;;;6.41;100.00;98703.13;4828019;29;20460;-84
2021/11/15 02:38:39;;;;;;;82.93;32.15;;;;;;;6.23;100.00;98664.06;4844884;29;20065;-83
2021/11/15 02:41:06;;;;;;;83.10;31.92;;;;;;;6.40;100.00;98706.88;4844734;29;20050;-84
2021/11/15 02:43:34;;;;;;;81.07;33.50;;;;;;;6.22;100.00;98692.00;4847715;29;20057;-84
2021/11/15 02:46:00;;;;;;;85.38;33.47;;;;;;;6.31;100.00;98707.66;4852706;29;20451;-84
2021/11/15 02:48:28;;;;;;;92.53;33.47;;;;;;;6.27;100.00;98705.47;4860361;29;20058;-85
2021/11/15 02:50:55;;;;;;;87.13;33.33;;;;;;;6.27;100.00;98708.16;4854717;29;20057;-86
2021/11/15 02:53:22;;;;;;;88.10;33.80;;;;;;;6.25;100.00;98710.31;4891462;29;20083;-86
2021/11/15 02:55:50;;;;;;;94.40;35.00;;;;;;;6.13;100.00;98700.84;4930433;29;20385;-84
2021/11/15 02:58:17;;;;;;;95.50;36.13;;;;;;;6.13;100.00;98708.91;4919850;29;20048;-85
2021/11/15 03:00:48;;;;;;;96.50;35.08;;;;;;;6.31;100.00;98707.66;4921412;29;20154;-85
2021/11/15 03:03:15;;;;;;;97.55;35.75;;;;;;;6.22;100.00;98693.88;4930570;29;20048;-85
2021/11/15 03:05:46;;;;;;;95.65;35.88;;;;;;;6.07;100.00;98705.38;4927120;28;20032;-85
2021/11/15 03:08:14;;;;;;;89.53;34.08;;;;;;;6.22;100.00;98704.63;4929574;28;20048;-84
2021/11/15 03:10:43;;;;;;;88.50;35.55;;;;;;;6.15;100.00;98699.50;4931246;29;20063;-83
2021/11/15 03:13:13;;;;;;;99.82;36.05;;;;;;;6.33;100.00;98700.13;4899578;29;20056;-84
2021/11/15 03:15:44;;;;;;;93.53;35.40;;;;;;;6.33;100.00;98700.13;4916831;29;20567;-85
2021/11/15 03:18:23;;;;;;;94.68;35.30;;;;;;;6.16;100.00;98703.81;4917506;29;20409;-84
2021/11/15 03:20:57;;;;;;;95.50;36.25;;;;;;;6.08;100.00;98706.19;4915631;29;20080;-85
2021/11/15 03:23:26;;;;;;;104.53;36.53;;;;;;;6.29;100.00;98707.91;4917014;29;20525;-84
2021/11/15 03:25:55;;;;;;;102.78;36.90;;;;;;;5.99;100.00;98696.97;4915065;29;20044;-84
2021/11/15 03:28:27;;;;;;;105.95;38.83;;;;;;;6.07;100.00;98702.66;4915248;29;20433;-84
2021/11/15 03:30:58;;;;;;;108.95;37.53;;;;;;;6.09;100.00;98695.16;4917476;29;20048;-84
2021/11/15 03:33:27;;;;;;;112.68;40.13;;;;;;;6.18;100.00;98696.28;4902015;29;20052;-85
2021/11/15 03:35:54;;;;;;;106.03;38.03;;;;;;;6.17;100.00;98700.03;4917417;29;20481;-83
2021/11/15 03:38:21;;;;;;;109.80;39.03;;;;;;;6.16;100.00;98690.38;4917065;29;20082;-85
2021/11/15 03:40:49;;;;;;;108.25;37.20;;;;;;;6.26;100.00;98690.44;4916828;29;20090;-83
2021/11/15 03:43:17;;;;;;;99.63;37.83;;;;;;;6.22;100.00;98685.81;4917973;29;20115;-85
2021/11/15 03:45:45;;;;;;;108.60;40.28;;;;;;;6.15;100.00;98669.09;4918490;29;20080;-85
2021/11/15 03:48:12;;;;;;;110.43;40.50;;;;;;;6.10;100.00;98690.59;4924679;29;20079;-85
2021/11/15 03:50:40;;;;;;;106.70;38.47;;;;;;;6.15;100.00;98678.00;4921977;29;20072;-84
2021/11/15 03:53:11;;;;;;;105.32;39.85;;;;;;;6.03;100.00;98690.84;4893139;29;20125;-85
2021/11/15 03:55:37;;;;;;;116.32;40.25;;;;;;;6.02;100.00;98693.75;4914000;29;20056;-85
2021/11/15 03:58:05;;;;;;;117.32;40.72;;;;;;;6.06;100.00;98689.50;4916448;29;20059;-85
2021/11/15 04:00:34;;;;;;;131.73;43.22;;;;;;;6.06;100.00;98690.31;4917094;29;20055;-85
2021/11/15 04:03:05;;;;;;;111.43;40.22;;;;;;;6.04;100.00;98683.59;4916072;29;20087;-85
2021/11/15 04:05:37;;;;;;;122.70;41.13;;;;;;;6.07;100.00;98688.41;4900566;29;20081;-84
2021/11/15 04:08:06;;;;;;;119.88;40.47;;;;;;;6.13;100.00;98684.69;4901553;29;20048;-82
2021/11/15 04:10:36;;;;;;;120.13;43.22;;;;;;;6.17;100.00;98680.41;4918767;29;20056;-83
2021/11/15 04:13:10;;;;;;;127.63;43.33;;;;;;;6.40;100.00;98692.66;4918172;29;20051;-82
2021/11/15 04:15:38;;;;;;;124.97;41.42;;;;;;;6.24;100.00;98687.19;4920179;29;20115;-83
2021/11/15 04:18:08;;;;;;;128.55;44.22;;;;;;;5.99;100.00;98672.78;4907677;29;20048;-83
2021/11/15 04:20:35;;;;;;;126.65;45.25;;;;;;;6.21;100.00;98673.47;4903093;29;20052;-84
2021/11/15 04:23:02;;;;;;;133.70;44.45;;;;;;;6.36;100.00;98668.16;4928509;29;20078;-84
2021/11/15 04:25:29;;;;;;;133.30;45.85;;;;;;;6.30;100.00;98658.44;4908630;29;20048;-84
2021/11/15 04:27:58;;;;;;;135.30;45.85;;;;;;;6.33;100.00;98665.16;4904546;29;20060;-85
2021/11/15 04:30:30;;;;;;;137.73;45.70;;;;;;;6.19;100.00;98662.94;4919414;29;20048;-84
2021/11/15 04:32:59;;;;;;;151.75;47.92;;;;;;;6.29;100.00;98654.13;4927524;29;20083;-85
2021/11/15 04:35:26;;;;;;;144.52;48.30;;;;;;;6.18;100.00;98655.16;4900101;29;20060;-85
2021/11/15 04:37:54;;;;;;;152.40;48.38;;;;;;;6.08;100.00;98655.09;4905736;29;20066;-84
2021/11/15 04:40:21;;;;;;;151.65;49.15;;;;;;;6.18;100.00;98655.16;4944073;23;20043;-82
2021/11/15 04:42:48;;;;;;;155.85;48.60;;;;;;;6.16;100.00;98652.75;4965990;28;20055;-82
2021/11/15 04:45:16;;;;;;;153.75;49.70;;;;;;;5.99;100.00;98652.09;4951089;29;20496;-82
2021/11/15 04:47:43;;;;;;;163.15;50.22;;;;;;;5.98;100.00;98655.03;4967700;28;20066;-82
2021/11/15 04:50:11;;;;;;;172.40;51.47;;;;;;;5.93;100.00;98645.09;4950996;28;20051;-80
2021/11/15 04:52:39;;;;;;;166.85;51.53;;;;;;;5.90;100.00;98648.28;4962461;28;20838;-81
2021/11/15 04:55:08;;;;;;;176.90;54.80;;;;;;;5.80;100.00;98653.56;4953055;28;20307;-81
2021/11/15 04:57:36;;;;;;;180.13;52.33;;;;;;;5.82;100.00;98656.78;4952956;29;20074;-81
2021/11/15 05:00:14;;;;;;;179.10;52.95;;;;;;;5.83;100.00;98658.44;4951860;29;20059;-82
2021/11/15 05:02:41;;;;;;;180.48;54.05;;;;;;;5.93;100.00;98655.84;4951370;29;20062;-83
2021/11/15 05:05:08;;;;;;;177.30;53.67;;;;;;;5.76;100.00;98647.06;4952965;29;20096;-83
2021/11/15 05:07:35;;;;;;;196.07;55.30;;;;;;;5.95;100.00;98648.31;4951342;29;20051;-81
2021/11/15 05:10:03;;;;;;;191.43;55.78;;;;;;;6.01;100.00;98651.84;4952224;29;20055;-81
2021/11/15 05:12:35;;;;;;;177.77;54.42;;;;;;;5.94;100.00;98638.63;4962645;28;20089;-81
2021/11/15 05:15:11;;;;;;;188.88;54.22;;;;;;;5.85;100.00;98637.50;4951567;29;20411;-81
2021/11/15 05:17:39;;;;;;;179.55;53.67;;;;;;;5.89;100.00;98652.03;4951904;29;20115;-81
2021/11/15 05:20:08;;;;;;;186.73;52.90;;;;;;;5.88;100.00;98646.94;4951575;28;20066;-82
2021/11/15 05:22:37;;;;;;;178.52;55.55;;;;;;;5.68;100.00;98642.19;4949991;28;20067;-81
2021/11/15 05:25:08;;;;;;;187.25;55.40;;;;;;;5.71;100.00;98633.63;4947588;28;20082;-82
2021/11/15 05:27:37;;;;;;;177.88;53.88;;;;;;;5.90;100.00;98629.47;4959795;28;20047;-81
2021/11/15 05:30:06;;;;;;;181.10;54.13;;;;;;;6.10;100.00;98637.63;4952023;29;20062;-82
2021/11/15 05:32:34;;;;;;;180.98;53.90;;;;;;;6.03;100.00;98617.44;4951019;29;20062;-81
2021/11/15 05:35:01;;;;;;;188.80;55.33;;;;;;;5.84;100.00;98632.34;4966800;28;20063;-81
2021/11/15 05:37:28;;;;;;;184.95;56.28;;;;;;;5.78;100.00;98631.50;4951766;29;20051;-82
2021/11/15 05:39:57;;;;;;;182.65;55.10;;;;;;;5.93;100.00;98628.16;4952462;28;20051;-82
2021/11/15 05:42:25;;;;;;;182.80;55.78;;;;;;;5.87;100.00;98621.94;4950235;29;20051;-81
2021/11/15 05:44:54;;;;;;;174.68;53.90;;;;;;;6.12;100.00;98626.63;4951918;28;20114;-81
2021/11/15 05:47:21;;;;;;;178.18;53.47;;;;;;;5.95;100.00;98634.06;4956405;28;20059;-81
2021/11/15 05:49:49;;;;;;;179.10;54.08;;;;;;;5.81;100.00;98633.66;4969753;28;20588;-82
2021/11/15 05:52:20;;;;;;;195.27;56.20;;;;;;;5.56;100.00;98645.06;4962245;28;20074;-82
2021/11/15 05:54:47;;;;;;;188.30;56.60;;;;;;;5.82;100.00;98639.88;4976179;28;20117;-81
2021/11/15 05:57:17;;;;;;;201.45;59.67;;;;;;;5.63;100.00;98651.03;4969772;28;20141;-84
2021/11/15 05:59:44;;;;;;;207.18;56.88;;;;;;;5.71;100.00;98638.97;4974290;28;20042;-83
2021/11/15 06:02:18;;;;;;;203.27;57.22;;;;;;;5.69;100.00;98659.94;4985381;28;20051;-83
2021/11/15 06:04:45;;;;;;;205.40;58.65;;;;;;;5.81;100.00;98641.72;4955592;28;20138;-84
2021/11/15 06:07:12;;;;;;;201.93;59.42;;;;;;;5.85;100.00;98655.50;4955370;29;20516;-83
2021/11/15 06:09:40;;;;;;;212.27;57.40;;;;;;;6.01;100.00;98644.56;4982576;28;20050;-85
2021/11/15 06:12:13;;;;;;;199.77;58.63;;;;;;;5.94;100.00;98641.31;4967012;28;20117;-85
2021/11/15 06:14:48;;;;;;;200.02;60.05;;;;;;;5.70;100.00;98631.19;4979582;28;20059;-85
2021/11/15 06:17:16;;;;;;;196.25;57.33;;;;;;;5.87;100.00;98640.75;4969965;28;20047;-83
2021/11/15 06:19:45;;;;;;;199.63;57.80;;;;;;;5.71;100.00;98654.28;4969701;28;20109;-84
2021/11/15 06:22:22;;;;;;;201.32;58.67;;;;;;;5.83;100.00;98666.50;4971008;28;20062;-86
2021/11/15 06:24:53;;;;;;;206.65;57.47;;;;;;;5.86;100.00;98663.28;4986378;28;20062;-86
2021/11/15 06:27:22;;;;;;;199.40;58.60;;;;;;;5.93;100.00;98653.16;4969867;28;20043;-85
2021/11/15 06:30:03;;;;;;;199.98;57.33;;;;;;;6.00;100.00;98664.47;4970571;28;20142;-85
2021/11/15 06:32:40;;;;;;;189.47;57.90;;;;;;;5.93;100.00;98647.78;4970023;28;20058;-86
2021/11/15 06:35:10;;;;;;;181.05;55.10;;;;;;;5.99;100.00;98668.22;4970538;28;20920;-86
2021/11/15 06:37:42;;;;;;;178.23;56.42;;;;;;;5.95;100.00;98661.75;4986763;28;20498;-84
2021/11/15 06:40:14;;;;;;;183.45;57.92;;;;;;;6.00;100.00;98669.84;4971151;28;20055;-85
2021/11/15 06:42:44;;;;;;;197.60;58.33;;;;;;;5.77;100.00;98656.75;4979043;28;20147;-85
2021/11/15 06:45:16;;;;;;;185.98;55.78;;;;;;;6.10;100.00;98675.28;4972248;28;20059;-85
2021/11/15 06:47:46;;;;;;;190.38;57.15;;;;;;;6.06;100.00;98682.25;4987236;28;20105;-85
2021/11/15 06:50:21;;;;;;;169.02;54.65;;;;;;;6.12;100.00;98673.13;4986052;28;20589;-84
2021/11/15 06:52:50;;;;;;;168.55;54.95;;;;;;;5.87;100.00;98670.28;4998171;28;20142;-84
2021/11/15 06:55:23;;;;;;;191.77;56.35;;;;;;;6.06;100.00;98676.88;4993236;28;20090;-84
2021/11/15 06:57:51;;;;;;;151.60;53.53;;;;;;;6.03;100.00;98661.25;4988448;28;20180;-86
2021/11/15 07:00:25;;;;;;;161.45;53.95;;;;;;;6.13;100.00;98671.25;4991829;28;20057;-85
2021/11/15 07:02:54;;;;;;;155.45;51.40;;;;;;;6.05;100.00;98686.00;4994685;28;20074;-83
2021/11/15 07:05:25;;;;;;;154.52;51.78;;;;;;;6.10;100.00;98677.97;4999645;28;20054;-85
2021/11/15 07:08:00;;;;;;;144.57;49.33;;;;;;;6.08;100.00;98663.16;4993168;28;20043;-86
2021/11/15 07:10:34;;;;;;;121.18;46.35;;;;;;;6.15;100.00;98661.88;4983532;28;20074;-86
2021/11/15 07:13:04;;;;;;;109.13;41.63;;;;;;;6.23;100.00;98671.31;4991885;28;20055;-85
2021/11/15 07:15:43;;;;;;;105.28;42.78;;;;;;;6.17;100.00;98672.34;4974298;28;20035;-85
2021/11/15 07:18:15;;;;;;;98.85;41.47;;;;;;;6.11;100.00;98670.72;4990155;28;20054;-84
2021/11/15 07:20:44;;;;;;;94.72;39.75;;;;;;;6.38;100.00;98681.31;4977098;28;20109;-83
2021/11/15 07:23:14;;;;;;;100.68;40.00;;;;;;;6.15;100.00;98661.88;4985866;28;20051;-86
2021/11/15 07:25:41;;;;;;;90.47;39.10;;;;;;;6.13;100.00;98664.00;4972934;28;20137;-86
2021/11/15 07:28:09;;;;;;;94.18;40.05;;;;;;;6.44;100.00;98674.91;4973241;28;20070;-85
2021/11/15 07:30:46;;;;;;;92.15;37.75;;;;;;;6.27;100.00;98670.50;4973320;28;20297;-85
2021/11/15 07:33:23;;;;;;;94.13;39.60;;;;;;;6.40;100.00;98676.50;4973869;28;20051;-83
2021/11/15 07:35:53;;;;;;;95.43;41.50;;;;;;;6.34;100.00;98659.53;4980992;28;20039;-84
2021/11/15 07:38:31;;;;;;;95.35;40.78;;;;;;;6.40;100.00;98657.69;4990032;28;20039;-82
2021/11/15 07:41:02;;;;;;;92.28;41.05;;;;;;;6.53;100.00;98667.97;4979869;28;20112;-85
2021/11/15 07:43:32;;;;;;;100.85;41.97;;;;;;;6.39;100.00;98664.94;4976274;28;20148;-85
2021/11/15 07:46:01;;;;;;;98.43;40.97;;;;;;;6.51;100.00;98660.13;4976929;28;20046;-85
2021/11/15 07:48:32;;;;;;;98.60;41.35;;;;;;;6.48;100.00;98649.13;4978869;28;20046;-86
2021/11/15 07:51:02;;;;;;;103.30;41.58;;;;;;;6.53;100.00;98649.13;4977177;28;20047;-83
2021/11/15 07:53:31;;;;;;;99.78;41.55;;;;;;;6.56;100.00;98672.78;4973536;28;20074;-85
2021/11/15 07:56:06;;;;;;;101.80;41.15;;;;;;;6.67;100.00;98675.28;4972010;28;20046;-84
2021/11/15 07:58:49;;;;;;;96.32;40.38;;;;;;;6.65;100.00;98661.28;4972349;28;20057;-85
2021/11/15 08:01:19;;;;;;;100.65;40.83;;;;;;;6.66;100.00;98672.81;4972606;28;20065;-86
2021/11/15 08:03:51;;;;;;;97.10;39.85;;;;;;;6.52;100.00;98659.06;4972474;28;20046;-85
2021/11/15 08:06:25;;;;;;;93.22;39.00;;;;;;;6.60;100.00;98657.75;4972175;28;20047;-84
2021/11/15 08:09:00;;;;;;;97.03;39.65;;;;;;;6.62;100.00;98658.28;4970815;28;20064;-85
2021/11/15 08:20:25;;;;;;;95.03;38.30;;;;;;;6.55;100.00;98665.81;4928351;28;20068;-86
2021/11/15 08:36:09;;;;;;;81.10;34.90;;;;;;;6.82;100.00;98661.03;4902770;23;20105;-78
2021/11/15 08:38:41;;;;;;;88.15;35.47;;;;;;;6.89;100.00;98667.78;4993863;28;20503;-78
2021/11/15 08:41:09;;;;;;;86.78;35.85;;;;;;;6.98;100.00;98656.50;4994009;28;20050;-78
2021/11/15 08:43:36;;;;;;;76.88;32.33;;;;;;;6.86;100.00;98667.53;4994837;28;20054;-78
2021/11/15 08:46:06;;;;;;;79.38;33.67;;;;;;;6.95;100.00;98663.22;4994962;28;20081;-78
2021/11/15 08:48:35;;;;;;;79.65;34.03;;;;;;;7.00;100.00;98681.28;4983557;28;20047;-77
2021/11/15 08:51:05;;;;;;;79.60;33.67;;;;;;;7.20;100.00;98678.63;4982883;28;20078;-78
2021/11/15 08:53:32;;;;;;;77.85;33.10;;;;;;;7.01;100.00;98670.25;4985609;28;20070;-77
2021/11/15 08:55:59;;;;;;;72.93;29.02;;;;;;;6.98;100.00;98669.97;4969367;28;20082;-77
2021/11/15 08:58:26;;;;;;;67.20;29.35;;;;;;;6.96;100.00;98658.66;4994184;28;20042;-78
2021/11/15 09:00:56;;;;;;;68.22;30.02;;;;;;;7.06;100.00;98672.13;4973387;28;20084;-78
2021/11/15 09:03:23;;;;;;;69.97;29.30;;;;;;;7.12;100.00;98658.44;4954253;28;20381;-77
2021/11/15 09:05:50;;;;;;;68.07;30.50;;;;;;;7.11;100.00;98664.06;4968031;28;20384;-77
2021/11/15 09:08:19;;;;;;;68.20;28.95;;;;;;;7.20;100.00;98663.25;4971323;28;20059;-78
2021/11/15 09:10:46;;;;;;;62.95;27.48;;;;;;;7.21;100.00;98664.91;4998431;28;20601;-79
2021/11/15 09:13:13;;;;;;;63.45;26.95;;;;;;;7.15;100.00;98665.94;4993165;28;20065;-78
2021/11/15 09:15:39;;;;;;;63.50;26.85;;;;;;;7.06;100.00;98667.56;4993036;28;20054;-78
2021/11/15 09:18:06;;;;;;;60.83;27.67;;;;;;;7.25;100.00;98679.44;4995572;28;20073;-78
2021/11/15 09:20:33;;;;;;;62.22;27.38;;;;;;;7.02;100.00;98671.84;5009117;28;20060;-78
2021/11/15 09:23:01;;;;;;;55.30;26.00;;;;;;;7.24;100.00;98682.41;5011516;28;20038;-78
2021/11/15 09:25:28;;;;;;;65.85;28.73;;;;;;;7.36;100.00;98689.16;5002174;28;20059;-78
2021/11/15 09:27:55;;;;;;;63.13;27.90;;;;;;;7.41;100.00;98689.16;4970454;28;20128;-79
2021/11/15 09:30:21;;;;;;;64.93;27.35;;;;;;;7.39;100.00;98691.31;4991637;28;20114;-79
2021/11/15 09:32:48;;;;;;;63.92;27.67;;;;;;;7.40;100.00;98684.03;4974306;28;20051;-78
2021/11/15 09:35:15;;;;;;;57.25;27.35;;;;;;;7.44;100.00;98696.69;4974916;28;20305;-79
2021/11/15 09:37:42;;;;;;;56.10;25.98;;;;;;;7.43;100.00;98703.16;4975143;28;20554;-78
2021/11/15 09:40:11;;;;;;;55.10;25.80;;;;;;;7.45;100.00;98689.44;4979522;28;20291;-78
2021/11/15 09:42:39;;;;;;;63.35;26.40;;;;;;;7.50;100.00;98692.94;4990274;28;20059;-78
2021/11/15 09:45:07;;;;;;;67.75;28.67;;;;;;;7.31;100.00;98691.84;4992029;28;20065;-77
2021/11/15 09:47:38;;;;;;;62.05;27.05;;;;;;;7.32;100.00;98690.78;4974964;28;20101;-77
2021/11/15 09:50:14;;;;;;;58.33;27.33;;;;;;;7.34;100.00;98683.22;4992636;28;20054;-77
2021/11/15 09:52:41;;;;;;;59.00;28.42;;;;;;;7.34;100.00;98679.72;4992553;28;20101;-78
2021/11/15 09:55:08;;;;;;;62.00;27.27;;;;;;;7.33;100.00;98684.28;4974864;28;20054;-78
2021/11/15 09:57:40;;;;;;;56.83;27.10;;;;;;;7.28;100.00;98676.22;4975365;28;20065;-77
2021/11/15 10:00:10;;;;;;;61.25;28.17;;;;;;;7.40;100.00;98679.47;4992280;28;20050;-77
2021/11/15 10:02:37;;;;;;;66.03;28.83;;;;;;;7.56;100.00;98682.16;4986815;28;20495;-77
2021/11/15 10:05:08;;;;;;;62.35;27.73;;;;;;;7.51;100.00;98669.47;4971501;28;20392;-78
2021/11/15 10:07:52;;;;;;;58.03;27.42;;;;;;;7.36;100.00;98666.78;4940723;28;20055;-78
2021/11/15 10:10:37;;;;;;;61.17;28.40;;;;;;;7.59;100.00;98668.94;4974293;28;20046;-78
2021/11/15 10:13:21;;;;;;;63.07;27.77;;;;;;;7.58;100.00;98659.25;4970485;28;20050;-78
2021/11/15 10:15:53;;;;;;;66.32;28.88;;;;;;;7.71;100.00;98657.91;4973785;28;20306;-78
2021/11/15 10:18:38;;;;;;;60.17;28.52;;;;;;;7.69;100.00;98665.44;4973992;28;20058;-78
2021/11/15 10:21:06;;;;;;;60.95;27.02;;;;;;;7.84;100.00;98658.16;4974466;28;20418;-78
2021/11/15 10:23:38;;;;;;;60.58;27.30;;;;;;;7.99;100.00;98665.41;4972909;28;20100;-77
2021/11/15 10:26:16;;;;;;;57.72;26.80;;;;;;;7.88;100.00;98661.09;4973607;28;20515;-78
2021/11/15 10:28:43;;;;;;;61.90;27.45;;;;;;;7.93;100.00;98661.09;4956376;28;20388;-78
2021/11/15 10:31:24;;;;;;;57.28;26.38;;;;;;;8.00;100.00;98658.94;4972732;28;20051;-78
2021/11/15 10:33:51;;;;;;;58.53;27.85;;;;;;;8.11;100.00;98664.03;4977558;28;20105;-78
2021/11/15 10:36:45;;;;;;;59.28;27.83;;;;;;;8.03;100.00;98655.69;4960961;28;20054;-78
2021/11/15 10:39:12;;;;;;;59.25;27.38;;;;;;;8.20;100.00;98664.28;4975197;28;20051;-78
2021/11/15 10:41:38;;;;;;;58.78;27.48;;;;;;;7.98;100.00;98655.69;4977169;28;20103;-79
2021/11/15 10:44:12;;;;;;;58.85;27.13;;;;;;;8.03;100.00;98666.47;4971144;28;20054;-78
2021/11/15 10:46:40;;;;;;;57.92;27.35;;;;;;;7.92;100.00;98671.06;4977381;28;20246;-78
2021/11/15 10:49:12;;;;;;;59.30;27.10;;;;;;;7.54;100.00;98667.06;4978132;28;20054;-78
2021/11/15 10:51:49;;;;;;;58.08;26.95;;;;;;;7.66;100.00;98666.00;4960746;28;20046;-78
2021/11/15 10:54:43;;;;;;;67.25;28.63;;;;;;;7.69;100.00;98662.75;4976907;28;20055;-78
2021/11/15 10:57:22;;;;;;;55.92;27.02;;;;;;;7.83;100.00;98650.31;4990235;23;20108;-77
2021/11/15 11:00:10;;;;;;;61.50;29.33;;;;;;;7.95;100.00;98657.03;4973982;28;20422;-78
2021/11/15 11:02:42;;;;;;;57.13;28.02;;;;;;;7.54;100.00;98658.97;4973487;28;20050;-78
2021/11/15 11:05:12;;;;;;;57.55;28.45;;;;;;;7.90;100.00;98656.25;4976558;28;20299;-79
2021/11/15 11:07:40;;;;;;;63.38;29.23;;;;;;;7.92;100.00;98672.97;4954924;29;20051;-77
2021/11/15 11:10:10;;;;;;;58.63;27.88;;;;;;;8.07;100.00;98652.19;4976217;28;20051;-79
2021/11/15 11:12:43;;;;;;;60.40;27.80;;;;;;;7.86;100.00;98645.22;4954298;28;20059;-78
2021/11/15 11:15:37;;;;;;;56.63;27.70;;;;;;;7.71;100.00;98656.03;4971070;28;20050;-78
2021/11/15 11:18:11;;;;;;;60.67;28.70;;;;;;;7.64;100.00;98654.69;4955127;29;20102;-78
2021/11/15 11:26:33;;;;;;;59.30;27.67;;;;;;;7.57;100.00;98654.13;4975071;28;20054;-78
2021/11/15 11:29:22;;;;;;;65.45;28.75;;;;;;;7.66;100.00;98653.31;4947882;29;20051;-79
2021/11/15 11:31:52;;;;;;;64.43;28.95;;;;;;;7.66;100.00;98655.22;4952745;28;20105;-79
2021/11/15 11:34:20;;;;;;;61.85;28.05;;;;;;;7.77;100.00;98646.81;4966202;28;20080;-78
2021/11/15 11:36:49;;;;;;;63.78;28.65;;;;;;;7.73;100.00;98651.16;4961586;28;20047;-79
2021/11/15 11:39:18;;;;;;;59.20;29.10;;;;;;;7.59;100.00;98647.38;4959116;28;20572;-79
2021/11/15 11:41:53;;;;;;;57.47;28.08;;;;;;;7.56;100.00;98652.53;4967885;28;20138;-79
2021/11/15 11:44:21;;;;;;;64.60;29.23;;;;;;;7.63;100.00;98647.66;4954415;28;20201;-78
2021/11/15 11:46:48;;;;;;;62.78;28.90;;;;;;;7.86;100.00;98647.91;4973521;28;20117;-79
2021/11/15 11:49:20;;;;;;;60.75;28.88;;;;;;;7.81;100.00;98647.09;4955410;28;20505;-79
2021/11/15 11:51:51;;;;;;;61.72;28.77;;;;;;;7.53;100.00;98638.53;4949715;29;20070;-78
2021/11/15 11:54:30;;;;;;;60.97;28.33;;;;;;;7.88;100.00;98640.34;4967331;28;20409;-79
2021/11/15 11:57:11;;;;;;;59.33;28.27;;;;;;;8.18;100.00;98652.97;4951872;29;20114;-80
2021/11/15 11:59:44;;;;;;;62.33;29.27;;;;;;;8.30;100.00;98636.50;4939769;29;20052;-79
2021/11/15 12:02:17;;;;;;;61.40;28.50;;;;;;;8.31;100.00;98644.28;4954572;28;20071;-79
2021/11/15 12:05:02;;;;;;;59.50;29.00;;;;;;;8.35;100.00;98639.16;4971736;28;20066;-79
2021/11/15 12:07:36;;;;;;;57.63;27.05;;;;;;;8.64;100.00;98642.81;4973229;28;20125;-80
2021/11/15 12:10:40;;;;;;;59.75;26.40;;;;;;;8.28;100.00;98650.25;4973816;28;20055;-80
2021/11/15 12:13:08;;;;;;;52.80;26.17;;;;;;;8.25;100.00;98649.97;4974196;28;20055;-79
2021/11/15 12:15:35;;;;;;;50.70;25.38;;;;;;;8.14;100.00;98654.59;4973363;28;20137;-80
2021/11/15 12:18:11;;;;;;;54.28;26.83;;;;;;;7.94;100.00;98652.75;4952731;29;20444;-80
2021/11/15 12:21:00;;;;;;;54.85;26.75;;;;;;;8.14;100.00;98643.78;4954287;29;20054;-80
2021/11/15 12:23:37;;;;;;;52.15;25.65;;;;;;;8.11;100.00;98633.53;4974006;28;20521;-79
2021/11/15 12:26:06;;;;;;;54.65;25.88;;;;;;;8.34;100.00;98643.75;4954926;29;20054;-80
2021/11/15 12:28:35;;;;;;;54.70;25.67;;;;;;;8.37;100.00;98635.13;4964373;28;20142;-79